createdAt,value
2023-05-16T00:01:54.685Z,5.55
2023-05-16T00:05:00.053Z,5.30
2023-05-16T00:08:05.548Z,5.80
2023-05-16T00:11:11.441Z,5.60
2023-05-16T00:14:16.407Z,6.22
2023-05-16T00:17:22.958Z,5.95
2023-05-16T00:20:28.751Z,5.78
2023-05-16T00:23:34.458Z,5.25
2023-05-16T00:26:39.457Z,5.45
2023-05-16T00:29:44.545Z,5.60
2023-05-16T00:32:51.007Z,5.63
2023-05-16T00:35:56.000Z,6.20
2023-05-16T00:39:01.275Z,6.32
2023-05-16T00:42:06.822Z,5.60
2023-05-16T00:45:13.313Z,5.63
2023-05-16T00:48:19.852Z,5.60
2023-05-16T00:51:27.583Z,5.68
2023-05-16T00:54:32.943Z,5.43
2023-05-16T00:57:38.222Z,5.43
2023-05-16T01:00:43.400Z,5.88
2023-05-16T01:03:49.869Z,5.85
2023-05-16T01:06:55.485Z,6.20
2023-05-16T01:10:00.648Z,6.43
2023-05-16T01:13:13.833Z,6.22
2023-05-16T01:16:27.655Z,6.10
2023-05-16T01:19:52.699Z,5.63
2023-05-16T01:23:20.050Z,5.43
2023-05-16T01:26:30.151Z,5.75
2023-05-16T01:29:35.405Z,5.60
2023-05-16T01:32:40.581Z,5.75
2023-05-16T01:35:54.451Z,5.30
2023-05-16T01:39:04.780Z,5.70
2023-05-16T01:42:14.310Z,5.45
2023-05-16T01:45:24.817Z,5.50
2023-05-16T01:48:35.252Z,6.15
2023-05-16T01:51:41.664Z,5.28
2023-05-16T01:54:48.476Z,5.70
2023-05-16T01:57:55.762Z,5.43
2023-05-16T02:01:03.853Z,5.25
2023-05-16T02:04:09.464Z,5.85
2023-05-16T02:07:15.232Z,5.55
2023-05-16T02:10:21.361Z,5.75
2023-05-16T02:13:27.850Z,5.55
2023-05-16T02:16:34.915Z,5.57
2023-05-16T02:19:39.966Z,5.40
2023-05-16T02:22:47.466Z,5.22
2023-05-16T02:25:52.531Z,5.50
2023-05-16T02:29:01.492Z,5.63
2023-05-16T02:32:07.179Z,5.70
2023-05-16T02:35:12.960Z,5.00
2023-05-16T02:38:18.202Z,5.30
2023-05-16T02:41:23.322Z,5.75
2023-05-16T02:44:29.695Z,5.30
2023-05-16T02:47:37.203Z,5.55
2023-05-16T02:50:42.861Z,5.55
2023-05-16T02:53:47.941Z,5.30
2023-05-16T02:56:53.625Z,5.13
2023-05-16T03:00:00.351Z,5.13
2023-05-16T03:03:05.611Z,5.50
2023-05-16T03:06:11.569Z,5.30
2023-05-16T03:09:16.578Z,5.63
2023-05-16T03:12:21.761Z,5.90
2023-05-16T03:15:28.556Z,5.82
2023-05-16T03:18:34.831Z,5.30
2023-05-16T03:21:40.645Z,5.80
2023-05-16T03:24:45.689Z,5.93
2023-05-16T03:27:50.772Z,5.57
2023-05-16T03:30:58.809Z,5.10
2023-05-16T03:34:03.909Z,5.22
2023-05-16T03:37:11.019Z,5.80
2023-05-16T03:40:16.302Z,5.85
2023-05-16T03:43:21.410Z,5.90
2023-05-16T03:46:27.897Z,5.80
2023-05-16T03:49:33.003Z,6.45
2023-05-16T03:52:38.987Z,6.28
2023-05-16T03:55:44.021Z,5.90
2023-05-16T03:58:49.007Z,5.80
2023-05-16T04:01:55.680Z,6.35
2023-05-16T04:05:00.680Z,6.47
2023-05-16T04:08:05.986Z,5.95
2023-05-16T04:11:12.832Z,5.43
2023-05-16T04:14:17.865Z,6.25
2023-05-16T04:17:24.412Z,5.63
2023-05-16T04:20:32.801Z,5.30
2023-05-16T04:23:37.658Z,5.10
2023-05-16T04:26:42.624Z,5.63
2023-05-16T04:29:48.118Z,5.40
2023-05-16T04:32:54.615Z,5.25
2023-05-16T04:36:00.175Z,5.50
2023-05-16T04:39:05.328Z,5.57
2023-05-16T04:42:11.587Z,5.57
2023-05-16T04:45:16.838Z,6.13
2023-05-16T04:48:23.149Z,5.75
2023-05-16T04:51:28.226Z,5.78
2023-05-16T04:54:33.801Z,6.32
2023-05-16T04:57:38.877Z,6.03
2023-05-16T05:00:44.469Z,5.60
2023-05-16T05:03:50.938Z,5.97
2023-05-16T05:06:56.041Z,6.53
2023-05-16T05:10:01.096Z,5.88
2023-05-16T05:13:06.184Z,6.10
2023-05-16T05:16:11.808Z,6.35
2023-05-16T05:19:18.274Z,6.38
2023-05-16T05:22:23.314Z,6.85
2023-05-16T05:25:28.675Z,6.30
2023-05-16T05:28:33.848Z,7.07
2023-05-16T05:31:38.960Z,6.40
2023-05-16T05:34:45.439Z,6.70
2023-05-16T05:37:50.384Z,6.65
2023-05-16T05:40:55.381Z,6.93
2023-05-16T05:44:00.313Z,6.85
2023-05-16T05:47:05.937Z,6.85
2023-05-16T05:50:14.748Z,6.72
2023-05-16T05:53:19.806Z,6.70
2023-05-16T05:56:25.808Z,6.53
2023-05-16T05:59:31.065Z,6.80
2023-05-16T06:02:36.556Z,6.90
2023-05-16T06:05:45.291Z,7.82
2023-05-16T06:08:50.316Z,7.10
2023-05-16T06:11:55.571Z,6.55
2023-05-16T06:15:00.505Z,7.10
2023-05-16T06:18:05.995Z,7.30
2023-05-16T06:21:12.447Z,7.38
2023-05-16T06:24:18.530Z,7.05
2023-05-16T06:27:23.649Z,7.70
2023-05-16T06:30:28.802Z,7.82
2023-05-16T06:33:34.083Z,7.43
2023-05-16T06:36:40.569Z,6.65
2023-05-16T06:39:45.692Z,7.50
2023-05-16T06:42:50.716Z,7.93
2023-05-16T06:45:55.739Z,7.40
2023-05-16T06:49:00.774Z,7.70
2023-05-16T06:52:07.787Z,7.53
2023-05-16T06:55:13.561Z,6.90
2023-05-16T06:58:19.137Z,7.13
2023-05-16T07:01:24.346Z,6.88
2023-05-16T07:04:29.458Z,7.00
2023-05-16T07:07:36.419Z,7.40
2023-05-16T07:10:41.565Z,7.50
2023-05-16T07:13:46.596Z,8.43
2023-05-16T07:16:51.604Z,7.30
2023-05-16T07:19:56.614Z,7.60
2023-05-16T07:23:03.076Z,7.53
2023-05-16T07:26:08.202Z,7.43
2023-05-16T07:29:14.609Z,8.65
2023-05-16T07:32:19.977Z,7.95
2023-05-16T07:35:25.311Z,7.93
2023-05-16T07:38:31.903Z,7.53
2023-05-16T07:41:36.877Z,8.13
2023-05-16T07:44:41.916Z,7.13
2023-05-16T07:47:47.168Z,7.85
2023-05-16T07:50:53.843Z,7.47
2023-05-16T07:54:01.956Z,7.40
2023-05-16T07:57:07.497Z,7.57
2023-05-16T08:00:15.182Z,7.57
2023-05-16T08:03:20.572Z,7.95
2023-05-16T08:06:25.743Z,7.57
2023-05-16T08:09:32.615Z,6.95
2023-05-16T08:12:37.705Z,6.90
2023-05-16T08:15:42.952Z,6.40
2023-05-16T08:18:48.031Z,5.90
2023-05-16T08:21:53.167Z,5.32
2023-05-16T08:25:00.671Z,5.90
2023-05-16T08:28:05.830Z,6.00
2023-05-16T08:31:12.792Z,6.28
2023-05-16T08:34:17.949Z,6.18
2023-05-16T08:37:23.016Z,6.93
2023-05-16T08:40:31.505Z,6.40
2023-05-16T08:43:37.038Z,6.60
2023-05-16T08:46:43.320Z,5.78
2023-05-16T08:49:50.089Z,5.30
2023-05-16T08:52:55.336Z,5.88
2023-05-16T08:56:02.385Z,6.63
2023-05-16T08:59:07.862Z,5.88
2023-05-16T09:02:16.023Z,6.15
2023-05-16T09:05:21.189Z,5.63
2023-05-16T09:08:26.519Z,5.82
2023-05-16T09:11:35.035Z,5.50
2023-05-16T09:14:41.134Z,5.70
2023-05-16T09:17:47.483Z,5.55
2023-05-16T09:20:54.381Z,5.38
2023-05-16T09:24:03.755Z,5.25
2023-05-16T09:27:14.152Z,5.88
2023-05-16T09:30:19.855Z,5.65
2023-05-16T09:33:25.067Z,5.43
2023-05-16T09:36:30.224Z,5.22
2023-05-16T09:39:35.423Z,4.90
2023-05-16T09:42:42.021Z,4.22
2023-05-16T09:45:49.195Z,4.53
2023-05-16T09:48:54.359Z,4.05
2023-05-16T09:52:02.565Z,4.20
2023-05-16T09:55:09.216Z,4.53
2023-05-16T09:58:19.695Z,4.25
2023-05-16T10:01:26.412Z,4.10
2023-05-16T10:04:31.696Z,4.43
2023-05-16T10:07:37.134Z,4.50
2023-05-16T10:10:42.521Z,4.13
2023-05-16T10:13:53.317Z,4.38
2023-05-16T10:16:59.941Z,4.47
2023-05-16T10:20:09.364Z,3.60
2023-05-16T10:23:19.916Z,4.20
2023-05-16T10:26:26.072Z,2.92
2023-05-16T10:29:40.068Z,3.30
2023-05-16T10:32:52.346Z,3.05
2023-05-16T10:35:58.046Z,2.55
2023-05-16T10:39:04.019Z,3.20
2023-05-16T10:42:09.418Z,3.00
2023-05-16T10:45:20.942Z,3.03
2023-05-16T10:48:33.144Z,2.92
2023-05-16T10:51:39.502Z,2.45
2023-05-16T10:54:46.008Z,2.97
2023-05-16T10:57:51.105Z,2.90
2023-05-16T11:01:21.909Z,3.03
2023-05-16T11:04:47.294Z,3.15
2023-05-16T11:08:05.894Z,3.22
2023-05-16T11:11:39.719Z,3.60
2023-05-16T11:14:47.746Z,3.25
2023-05-16T11:18:06.994Z,3.83
2023-05-16T11:21:12.736Z,3.58
2023-05-16T11:24:34.903Z,3.95
2023-05-16T11:27:44.491Z,3.88
2023-05-16T11:30:50.849Z,3.85
2023-05-16T11:33:57.503Z,3.95
2023-05-16T11:37:02.780Z,3.83
2023-05-16T11:40:09.842Z,4.38
2023-05-16T11:43:20.519Z,4.78
2023-05-16T11:46:26.009Z,5.03
2023-05-16T11:49:32.217Z,4.45
2023-05-16T11:52:37.596Z,4.57
2023-05-16T11:55:43.664Z,4.28
2023-05-16T11:58:49.060Z,4.18
2023-05-16T12:01:54.186Z,4.30
2023-05-16T12:05:00.993Z,4.95
2023-05-16T12:08:07.272Z,5.07
2023-05-16T12:11:16.640Z,5.75
2023-05-16T12:14:22.420Z,5.95
2023-05-16T12:17:27.578Z,5.53
2023-05-16T12:20:34.314Z,6.03
2023-05-16T12:23:39.335Z,5.97
2023-05-16T12:26:44.800Z,6.18
2023-05-16T12:29:49.882Z,6.75
2023-05-16T12:32:57.295Z,6.07
2023-05-16T12:36:04.812Z,6.38
2023-05-16T12:39:14.051Z,5.97
2023-05-16T12:42:19.129Z,6.20
2023-05-16T12:45:24.579Z,6.25
2023-05-16T12:48:35.775Z,6.57
2023-05-16T12:51:42.400Z,6.55
2023-05-16T12:54:47.427Z,5.60
2023-05-16T12:57:52.859Z,6.15
2023-05-16T13:00:57.842Z,6.10
2023-05-16T13:04:04.751Z,6.60
2023-05-16T13:07:12.074Z,6.07
2023-05-16T13:10:17.208Z,6.50
2023-05-16T13:13:35.400Z,6.20
2023-05-16T13:16:41.291Z,6.32
2023-05-16T13:19:48.248Z,6.25
2023-05-16T13:22:55.849Z,5.85
2023-05-16T13:26:00.916Z,6.88
2023-05-16T13:29:07.492Z,6.55
2023-05-16T13:32:13.852Z,6.68
2023-05-16T13:35:19.330Z,6.45
2023-05-16T13:38:26.252Z,6.63
2023-05-16T13:41:32.579Z,6.95
2023-05-16T13:44:37.665Z,6.63
2023-05-16T13:47:46.221Z,6.60
2023-05-16T13:50:53.582Z,7.18
2023-05-16T13:54:00.010Z,6.90
2023-05-16T13:57:05.279Z,6.90
2023-05-16T14:00:42.740Z,7.75
2023-05-16T14:03:42.128Z,7.35
2023-05-16T14:06:47.121Z,7.43
2023-05-16T14:09:53.472Z,6.90
2023-05-16T14:12:58.721Z,6.85
2023-05-16T14:16:03.746Z,6.70
2023-05-16T14:19:09.181Z,7.50
2023-05-16T14:22:15.353Z,6.82
2023-05-16T14:25:21.930Z,7.47
2023-05-16T14:28:26.953Z,7.47
2023-05-16T14:31:32.334Z,7.95
2023-05-16T14:34:37.345Z,7.10
2023-05-16T14:37:42.516Z,7.45
2023-05-16T14:40:49.061Z,6.97
2023-05-16T14:43:54.137Z,7.60
2023-05-16T14:46:59.081Z,7.22
2023-05-16T14:50:04.211Z,7.30
2023-05-16T14:53:09.636Z,7.78
2023-05-16T14:56:16.970Z,7.82
2023-05-16T14:59:21.899Z,8.02
2023-05-16T15:02:27.972Z,8.10
2023-05-16T15:05:33.182Z,7.95
2023-05-16T15:08:38.543Z,8.02
2023-05-16T15:11:44.920Z,8.90
2023-05-16T15:14:50.067Z,7.85
2023-05-16T15:17:55.165Z,8.30
2023-05-16T15:21:00.264Z,8.57
2023-05-16T15:24:05.650Z,9.20
2023-05-16T15:27:12.852Z,8.25
2023-05-16T15:30:17.904Z,8.70
2023-05-16T15:33:22.946Z,8.10
2023-05-16T15:36:27.975Z,7.10
2023-05-16T15:39:33.411Z,7.95
2023-05-16T15:42:39.805Z,7.85
2023-05-16T15:45:45.879Z,9.45
2023-05-16T15:48:50.865Z,7.70
2023-05-16T15:51:56.221Z,7.80
2023-05-16T15:55:01.414Z,8.55
2023-05-16T15:58:08.261Z,8.55
2023-05-16T16:01:13.527Z,8.00
2023-05-16T16:04:22.438Z,9.15
2023-05-16T16:07:28.309Z,9.40
2023-05-16T16:10:33.245Z,8.57
2023-05-16T16:13:39.688Z,9.07
2023-05-16T16:16:45.614Z,8.45
2023-05-16T16:19:50.700Z,8.07
2023-05-16T16:22:55.963Z,6.70
2023-05-16T16:26:01.430Z,6.40
2023-05-16T16:29:08.273Z,7.32
2023-05-16T16:32:14.600Z,7.20
2023-05-16T16:35:19.740Z,6.55
2023-05-16T16:38:24.673Z,6.65
2023-05-16T16:41:29.784Z,6.45
2023-05-16T16:44:36.179Z,6.85
2023-05-16T16:47:41.701Z,6.80
2023-05-16T16:50:47.266Z,6.43
2023-05-16T16:53:52.342Z,6.30
2023-05-16T16:56:57.899Z,7.18
2023-05-16T17:00:04.510Z,7.25
2023-05-16T17:03:10.539Z,7.47
2023-05-16T17:06:15.753Z,7.28
2023-05-16T17:09:21.429Z,7.68
2023-05-16T17:12:28.510Z,8.00
2023-05-16T17:15:35.054Z,7.88
2023-05-16T17:18:40.728Z,8.15
2023-05-16T17:21:47.463Z,8.02
2023-05-16T17:24:52.773Z,7.63
2023-05-16T17:27:58.144Z,7.50
2023-05-16T17:31:04.731Z,8.13
2023-05-16T17:34:09.765Z,7.75
2023-05-16T17:37:14.892Z,7.55
2023-05-16T17:40:19.970Z,6.75
2023-05-16T17:43:25.715Z,6.65
2023-05-16T17:46:32.331Z,7.10
2023-05-16T17:49:37.493Z,6.55
2023-05-16T17:52:42.474Z,7.05
2023-05-16T17:55:47.619Z,7.18
2023-05-16T17:58:53.498Z,6.75
2023-05-16T18:01:59.948Z,5.88
2023-05-16T18:05:05.120Z,5.60
2023-05-16T18:08:10.184Z,5.10
2023-05-16T18:11:15.174Z,4.35
2023-05-16T18:14:20.399Z,4.22
2023-05-16T18:17:27.345Z,4.15
2023-05-16T18:20:32.675Z,3.90
2023-05-16T18:23:38.421Z,3.70
2023-05-16T18:26:44.364Z,3.35
2023-05-16T18:29:49.512Z,4.25
2023-05-16T18:32:56.144Z,4.10
2023-05-16T18:36:01.171Z,3.70
2023-05-16T18:39:07.173Z,8.32
2023-05-16T18:42:12.321Z,8.07
2023-05-16T18:45:17.421Z,6.88
2023-05-16T18:48:23.819Z,5.82
2023-05-16T18:51:28.961Z,3.80
2023-05-16T18:54:34.037Z,3.90
2023-05-16T18:57:39.205Z,3.80
2023-05-16T19:00:44.228Z,3.50
2023-05-16T19:03:50.764Z,4.07
2023-05-16T19:07:03.081Z,3.63
2023-05-16T19:10:11.275Z,3.90
2023-05-16T19:13:16.281Z,4.43
2023-05-16T19:16:21.445Z,3.97
2023-05-16T19:19:27.998Z,3.90
2023-05-16T19:22:33.217Z,3.75
2023-05-16T19:25:38.126Z,4.20
2023-05-16T19:28:43.147Z,3.95
2023-05-16T19:31:48.129Z,3.83
2023-05-16T19:34:54.759Z,4.10
2023-05-16T19:38:00.370Z,4.30
2023-05-16T19:41:05.355Z,4.13
2023-05-16T19:44:12.049Z,4.10
2023-05-16T19:47:17.184Z,4.22
2023-05-16T19:50:23.540Z,4.65
2023-05-16T19:53:28.565Z,4.90
2023-05-16T19:56:33.523Z,4.90
2023-05-16T19:59:38.675Z,5.20
2023-05-16T20:02:43.906Z,4.95
2023-05-16T20:05:50.453Z,5.40
2023-05-16T20:08:55.993Z,5.80
2023-05-16T20:12:01.331Z,5.50
2023-05-16T20:15:08.381Z,5.82
2023-05-16T20:18:14.229Z,5.30
2023-05-16T20:21:20.780Z,5.80
2023-05-16T20:24:25.950Z,5.63
2023-05-16T20:27:31.949Z,5.95
2023-05-16T20:30:37.121Z,5.70
2023-05-16T20:33:42.480Z,5.57
2023-05-16T20:36:49.081Z,5.70
2023-05-16T20:39:54.698Z,5.55
2023-05-16T20:42:59.408Z,5.05
2023-05-16T20:46:04.360Z,5.20
2023-05-16T20:49:09.441Z,4.82
2023-05-16T20:52:16.544Z,5.57
2023-05-16T20:55:21.558Z,5.50
2023-05-16T20:58:26.515Z,5.47
2023-05-16T21:01:31.595Z,5.50
2023-05-16T21:04:36.605Z,5.70
2023-05-16T21:07:43.464Z,5.57
2023-05-16T21:10:48.749Z,5.68
2023-05-16T21:13:53.842Z,5.65
2023-05-16T21:16:58.772Z,6.20
2023-05-16T21:20:03.902Z,6.00
2023-05-16T21:23:11.093Z,5.82
2023-05-16T21:26:16.359Z,5.68
2023-05-16T21:29:21.820Z,5.97
2023-05-16T21:32:32.028Z,5.75
2023-05-16T21:35:37.233Z,5.40
2023-05-16T21:38:43.717Z,5.65
2023-05-16T21:41:48.668Z,5.75
2023-05-16T21:44:53.601Z,5.78
2023-05-16T21:47:58.598Z,6.28
2023-05-16T21:51:03.860Z,5.25
2023-05-16T21:54:11.022Z,6.00
2023-05-16T21:57:16.089Z,5.75
2023-05-16T22:00:21.364Z,5.68
2023-05-16T22:03:26.559Z,5.85
2023-05-16T22:06:31.611Z,5.75
2023-05-16T22:09:38.234Z,5.28
2023-05-16T22:12:43.274Z,5.90
2023-05-16T22:16:03.403Z,5.93
2023-05-16T22:19:10.887Z,5.22
2023-05-16T22:22:16.113Z,5.57
2023-05-16T22:25:22.568Z,6.03
2023-05-16T22:28:27.854Z,5.60
2023-05-16T22:31:33.604Z,5.72
2023-05-16T22:34:39.821Z,5.25
2023-05-16T22:37:44.861Z,5.97
2023-05-16T22:40:51.454Z,5.95
2023-05-16T22:43:56.432Z,6.10
2023-05-16T22:47:01.623Z,6.10
2023-05-16T22:50:07.396Z,6.25
2023-05-16T22:53:14.666Z,6.28
2023-05-16T22:56:21.161Z,6.13
2023-05-16T22:59:26.792Z,6.68
2023-05-16T23:02:32.359Z,6.35
2023-05-16T23:05:38.178Z,5.82
2023-05-16T23:08:43.213Z,6.47
2023-05-16T23:11:49.672Z,6.95
2023-05-16T23:14:54.680Z,6.43
2023-05-16T23:18:00.006Z,6.38
2023-05-16T23:21:05.271Z,6.25
2023-05-16T23:24:12.765Z,6.35
2023-05-16T23:27:22.636Z,6.15
2023-05-16T23:30:27.891Z,6.07
2023-05-16T23:33:33.171Z,6.25
2023-05-16T23:36:38.214Z,5.38
2023-05-16T23:39:43.381Z,6.07
2023-05-16T23:42:49.984Z,6.15
2023-05-16T23:45:54.951Z,6.13
2023-05-16T23:49:00.254Z,6.60
2023-05-16T23:52:06.115Z,6.78
2023-05-16T23:55:12.478Z,6.60
2023-05-16T23:58:18.857Z,6.90
